Warren, Pennsylvania
Current Conditions -  °F | °C
As of 7:35 PM on Sunday 21 Dec 2014 (Local Time) from KJHW Reporting Station
Overcast Overcast  
Wind Chill: 19°   Ceiling: 1400
Heat Index: 27°   Visibility: 10mi
Dew Point: 19°   Wind: 7mph
Humidity: 74%   Direction: 110°ESE
Pressure: 30.23"   Gusts: NA
Location:  41.84°N, 79.14°W
Report Text: KJHW 220035Z 11006KT 10SM OVC014 M03/M07 A3023 RMK AO1
Loading
Personal Weather Stations






























Interactive Weather Map New forecast layout! Learn more

10-Day Weather Forecast

Advertisements
Track Severe Weather on mobile